Time;durP1;ratioP1;P1;durP2;ratioP2;P2;SDS_P1;SDS_P2;PMS_P1;PMS_P2;Temp;Humidity;BMP_temperature;BMP_pressure;BME280_temperature;BME280_humidity;BME280_pressure;Samples;Min_cycle;Max_cycle;Signal;HPM_P1;HPM_P2
2022/01/22 04:30:35;;;;;;;15.50;12.07;;;;;;;8.34;57.50;100217.53;8347470;22;20211;-79
2022/01/22 04:33:57;;;;;;;15.47;11.50;;;;;;;8.42;58.09;100228.34;6971356;28;20666;-79
2022/01/22 04:37:19;;;;;;;16.43;12.13;;;;;;;8.31;57.94;100217.00;6974119;28;20619;-78
2022/01/22 04:40:40;;;;;;;14.73;11.17;;;;;;;8.38;57.90;100237.69;6969629;28;20243;-79
2022/01/22 04:44:04;;;;;;;14.23;10.57;;;;;;;8.18;57.55;100221.88;6946665;28;20214;-78
2022/01/22 04:47:35;;;;;;;18.00;12.23;;;;;;;8.42;57.70;100228.34;6945226;28;20659;-78
2022/01/22 04:58:15;;;;;;;17.37;11.53;;;;;;;8.38;57.78;100228.81;6949396;28;20178;-81
2022/01/22 05:01:37;;;;;;;15.33;11.17;;;;;;;8.72;57.15;100245.88;6948500;28;20231;-81
2022/01/22 05:05:00;;;;;;;13.63;11.37;;;;;;;8.73;57.02;100243.00;6948225;28;20731;-80
2022/01/22 05:08:21;;;;;;;18.07;12.47;;;;;;;8.41;57.22;100245.47;6948595;28;20210;-80
2022/01/22 05:11:43;;;;;;;14.87;11.13;;;;;;;8.24;57.80;100224.00;6947965;28;20409;-79
2022/01/22 05:15:05;;;;;;;19.00;11.93;;;;;;;8.45;57.89;100244.16;6951068;28;20574;-81
2022/01/22 05:18:27;;;;;;;15.67;11.63;;;;;;;8.57;57.27;100248.28;6948978;28;20236;-80
2022/01/22 05:21:52;;;;;;;13.80;11.90;;;;;;;8.22;57.24;100259.09;6948235;28;20229;-81
2022/01/22 05:25:19;;;;;;;17.17;11.60;;;;;;;8.36;57.90;100255.84;6948431;28;20192;-80
2022/01/22 05:29:14;;;;;;;18.70;12.07;;;;;;;8.37;57.45;100264.75;6948743;28;20198;-80
2022/01/22 05:32:53;;;;;;;19.07;12.63;;;;;;;8.16;57.95;100240.88;6948179;28;20240;-79
2022/01/22 05:39:56;;;;;;;17.17;12.67;;;;;;;7.54;59.24;100222.13;6948771;28;20215;-80
2022/01/22 05:43:18;;;;;;;16.43;12.23;;;;;;;7.84;58.20;100188.72;6951187;28;20227;-80
2022/01/22 05:46:42;;;;;;;18.10;11.33;;;;;;;7.99;57.48;100222.06;6951488;28;20211;-81
2022/01/22 05:50:12;;;;;;;19.20;12.70;;;;;;;7.92;58.00;100208.44;6946448;28;20215;-81
2022/01/22 05:53:45;;;;;;;17.30;11.50;;;;;;;8.17;58.56;100280.16;6946735;28;20218;-81
2022/01/22 06:00:48;;;;;;;21.73;12.97;;;;;;;7.51;58.06;100167.91;6946167;28;20241;-81
2022/01/22 06:04:10;;;;;;;17.60;12.13;;;;;;;8.35;57.73;100264.91;6945813;28;20345;-81
2022/01/22 06:07:32;;;;;;;20.37;12.97;;;;;;;8.00;58.15;100270.25;6946526;28;20240;-78
2022/01/22 06:10:55;;;;;;;16.27;12.43;;;;;;;8.08;57.74;100256.06;6943090;28;20471;-79
2022/01/22 06:14:18;;;;;;;20.70;12.90;;;;;;;8.34;58.04;100279.34;6943093;28;20199;-78
2022/01/22 06:17:40;;;;;;;23.20;12.23;;;;;;;8.26;58.20;100275.75;6943608;28;20230;-78
2022/01/22 06:21:01;;;;;;;17.47;11.40;;;;;;;8.21;57.57;100273.53;6943178;28;20352;-78
2022/01/22 06:24:23;;;;;;;17.43;11.70;;;;;;;8.02;57.90;100241.41;6942306;28;20217;-79
2022/01/22 06:27:45;;;;;;;18.37;10.43;;;;;;;8.32;57.23;100280.50;6943455;28;20212;-79
2022/01/22 06:31:11;;;;;;;21.77;13.60;;;;;;;8.39;56.85;100265.44;6939265;28;20975;-81
2022/01/22 06:34:32;;;;;;;22.43;12.03;;;;;;;8.11;57.32;100274.56;6921665;28;20195;-80
2022/01/22 06:37:54;;;;;;;16.33;11.37;;;;;;;8.36;56.93;100288.09;6934095;28;20692;-81
2022/01/22 06:44:54;;;;;;;14.87;11.37;;;;;;;8.32;57.10;100286.69;6916073;28;20220;-79
2022/01/22 06:48:17;;;;;;;18.87;11.07;;;;;;;8.10;57.30;100297.91;6935322;28;20229;-81
2022/01/22 06:51:39;;;;;;;19.37;11.50;;;;;;;8.14;57.69;100303.81;6938396;28;20247;-81
2022/01/22 06:55:02;;;;;;;13.93;10.80;;;;;;;8.32;57.09;100294.75;6936523;28;20258;-78
2022/01/22 06:58:24;;;;;;;13.53;11.03;;;;;;;8.48;56.96;100299.44;6936783;28;20738;-80
2022/01/22 07:01:48;;;;;;;15.77;11.43;;;;;;;8.45;56.89;100297.06;6941525;28;20233;-80
2022/01/22 07:05:14;;;;;;;15.43;11.23;;;;;;;8.48;56.83;100300.28;6925957;28;20297;-83
2022/01/22 07:08:35;;;;;;;16.67;10.63;;;;;;;8.34;57.42;100321.47;6918406;28;20609;-80
2022/01/22 07:12:00;;;;;;;12.97;10.17;;;;;;;8.48;57.80;100311.03;6944134;28;20221;-82
2022/01/22 07:15:21;;;;;;;14.53;11.43;;;;;;;8.22;57.44;100285.97;6948527;28;20208;-83
2022/01/22 07:18:43;;;;;;;21.70;12.03;;;;;;;8.75;56.65;100313.63;6946946;28;20203;-80
2022/01/22 07:22:19;;;;;;;18.47;11.93;;;;;;;8.11;58.25;100282.59;6946427;28;20237;-83
2022/01/22 07:25:41;;;;;;;18.60;11.73;;;;;;;8.20;58.12;100292.47;6946087;28;20210;-83
2022/01/22 07:29:02;;;;;;;15.80;10.67;;;;;;;8.38;57.94;100315.63;6947075;28;20573;-81
2022/01/22 07:32:32;;;;;;;15.87;11.27;;;;;;;8.56;57.14;100313.81;6947674;28;20320;-84
2022/01/22 07:35:54;;;;;;;15.97;11.13;;;;;;;8.37;57.21;100272.81;6945288;28;20201;-85
2022/01/22 07:39:17;;;;;;;15.30;10.53;;;;;;;8.70;56.63;100288.19;6946031;28;20287;-83
2022/01/22 07:42:40;;;;;;;13.53;10.60;;;;;;;8.33;57.38;100288.41;6945221;28;20228;-82
2022/01/22 07:46:01;;;;;;;16.43;10.37;;;;;;;8.20;58.42;100273.69;6943273;28;20199;-83
2022/01/22 07:49:23;;;;;;;16.57;12.03;;;;;;;8.06;59.11;100318.00;6945220;28;20218;-82
2022/01/22 07:52:44;;;;;;;18.67;11.33;;;;;;;8.18;58.58;100321.28;6946653;28;20602;-82
2022/01/22 07:56:08;;;;;;;19.80;12.47;;;;;;;8.13;58.73;100324.44;6939163;28;20666;-85
2022/01/22 07:59:30;;;;;;;17.63;12.90;;;;;;;8.08;58.07;100273.00;6943898;28;20231;-83
2022/01/22 08:02:51;;;;;;;19.27;13.00;;;;;;;8.10;58.81;100308.66;6927655;28;20222;-80
2022/01/22 08:06:13;;;;;;;19.47;11.77;;;;;;;8.03;58.62;100291.47;6930322;28;20206;-83
2022/01/22 08:09:34;;;;;;;21.03;12.67;;;;;;;8.47;58.83;100306.66;6931235;28;20690;-83
2022/01/22 08:12:57;;;;;;;17.93;12.53;;;;;;;8.05;59.30;100267.09;6921183;28;20720;-82
2022/01/22 08:16:19;;;;;;;20.20;12.93;;;;;;;8.12;60.14;100338.88;6921377;28;20220;-83
2022/01/22 08:19:41;;;;;;;15.60;11.80;;;;;;;8.11;60.28;100349.75;6922291;28;20593;-83
2022/01/22 08:23:02;;;;;;;18.40;12.60;;;;;;;8.52;59.33;100349.19;6920900;28;20599;-82
2022/01/22 08:26:29;;;;;;;19.30;13.57;;;;;;;8.29;60.04;100345.28;6922619;28;20678;-82
2022/01/22 08:29:52;;;;;;;21.67;12.10;;;;;;;8.41;59.86;100350.28;6923717;28;20200;-79
2022/01/22 08:36:55;;;;;;;16.47;11.43;;;;;;;8.00;60.46;100358.91;6915415;28;20304;-81
2022/01/22 08:40:17;;;;;;;15.80;11.17;;;;;;;8.39;60.25;100346.91;6920833;28;20237;-81
2022/01/22 08:43:38;;;;;;;15.10;12.03;;;;;;;8.15;60.29;100329.66;6921838;28;20507;-80
2022/01/22 08:47:01;;;;;;;18.17;12.50;;;;;;;8.23;60.49;100367.38;6946067;28;20222;-79
2022/01/22 08:50:23;;;;;;;25.97;13.00;;;;;;;7.91;60.36;100314.13;6949078;28;20717;-82
2022/01/22 08:53:45;;;;;;;18.63;12.00;;;;;;;7.91;60.88;100361.66;6949105;28;20265;-80
2022/01/22 08:57:07;;;;;;;15.97;11.07;;;;;;;8.40;60.02;100366.56;6947737;28;20699;-78
2022/01/22 09:00:29;;;;;;;15.47;11.77;;;;;;;8.28;59.90;100363.25;6946772;28;20702;-80
2022/01/22 09:03:52;;;;;;;19.03;11.33;;;;;;;7.66;59.82;100271.09;6933123;28;20568;-83
2022/01/22 09:07:14;;;;;;;18.97;12.13;;;;;;;8.86;58.80;100356.41;6951588;28;20204;-80
2022/01/22 09:10:35;;;;;;;14.73;11.40;;;;;;;8.63;59.05;100381.22;6944731;28;20267;-78
2022/01/22 09:13:57;;;;;;;16.00;11.33;;;;;;;8.61;58.17;100362.56;6947190;28;20201;-80
2022/01/22 09:17:19;;;;;;;17.83;12.27;;;;;;;8.46;58.91;100372.19;6952384;28;20191;-79
2022/01/22 09:21:01;;;;;;;16.13;12.07;;;;;;;8.41;59.56;100342.22;6956289;28;20604;-82
2022/01/22 09:24:23;;;;;;;15.43;10.93;;;;;;;8.78;58.57;100367.06;6927214;28;20184;-82
2022/01/22 09:27:44;;;;;;;15.87;10.27;;;;;;;8.73;57.91;100374.75;6928419;28;20700;-80
2022/01/22 09:31:06;;;;;;;15.73;11.87;;;;;;;8.06;59.78;100387.84;6921222;28;20237;-82
2022/01/22 09:34:28;;;;;;;15.87;10.27;;;;;;;8.38;58.81;100330.94;6921689;28;20220;-82
2022/01/22 09:37:52;;;;;;;15.27;10.70;;;;;;;8.39;58.54;100329.94;6922986;28;20205;-81
2022/01/22 09:41:14;;;;;;;16.83;11.57;;;;;;;8.22;58.91;100387.19;6922346;28;20244;-82
2022/01/22 09:44:39;;;;;;;16.03;11.90;;;;;;;8.57;59.19;100393.44;6926857;28;20214;-81
2022/01/22 09:48:01;;;;;;;14.33;10.67;;;;;;;8.05;60.08;100399.59;6928829;28;20213;-82
2022/01/22 09:51:23;;;;;;;21.43;13.50;;;;;;;8.66;58.87;100402.44;6921653;28;20232;-82
2022/01/22 09:54:46;;;;;;;15.47;11.13;;;;;;;8.57;58.59;100414.97;6918201;28;20206;-82
2022/01/22 09:58:07;;;;;;;20.50;11.67;;;;;;;8.61;58.98;100410.94;6919593;28;20207;-81
2022/01/22 10:01:31;;;;;;;16.63;11.47;;;;;;;8.36;58.56;100390.22;6918852;28;20235;-82
2022/01/22 10:04:52;;;;;;;18.87;12.37;;;;;;;8.40;59.05;100404.19;6918420;28;20207;-82
2022/01/22 10:08:36;;;;;;;19.20;11.67;;;;;;;8.52;58.58;100359.94;6921328;28;20210;-83
2022/01/22 10:12:10;;;;;;;17.23;12.30;;;;;;;8.82;58.40;100411.50;6931822;28;20222;-83
2022/01/22 10:15:34;;;;;;;17.87;12.00;;;;;;;8.83;58.53;100398.91;6931226;28;20215;-83
2022/01/22 10:19:13;;;;;;;17.57;12.37;;;;;;;8.77;58.53;100405.72;6929831;28;20671;-83
2022/01/22 10:22:43;;;;;;;24.80;15.47;;;;;;;8.43;59.37;100388.59;6928567;28;20227;-83
2022/01/22 10:26:07;;;;;;;24.07;13.93;;;;;;;8.77;59.45;100415.66;6928956;28;20205;-81
2022/01/22 10:29:30;;;;;;;18.87;12.40;;;;;;;8.31;59.01;100346.00;6934516;28;20298;-83
2022/01/22 10:32:59;;;;;;;19.10;13.37;;;;;;;8.94;58.68;100386.03;6937216;28;20244;-83
2022/01/22 10:36:23;;;;;;;18.13;12.90;;;;;;;9.18;58.49;100372.75;6932722;28;20663;-82
2022/01/22 10:39:44;;;;;;;17.70;12.07;;;;;;;9.33;57.89;100372.00;6935915;28;20201;-81
2022/01/22 10:43:15;;;;;;;18.40;13.60;;;;;;;9.26;58.41;100373.66;6930505;28;20220;-81
2022/01/22 10:46:49;;;;;;;13.87;11.63;;;;;;;9.60;57.46;100392.50;6918679;28;20207;-82
2022/01/22 10:50:18;;;;;;;26.13;15.57;;;;;;;9.70;58.30;100352.84;6918713;28;20483;-83
2022/01/22 10:53:43;;;;;;;18.57;12.80;;;;;;;10.05;58.21;100395.78;6925375;28;20216;-81
2022/01/22 10:57:11;;;;;;;24.33;17.73;;;;;;;9.59;57.80;100375.53;6932815;28;20196;-82
2022/01/22 11:00:36;;;;;;;18.60;14.67;;;;;;;8.98;58.01;100280.63;6929559;28;20231;-82
2022/01/22 11:04:08;;;;;;;16.43;12.70;;;;;;;9.57;57.34;100312.06;6929292;28;20626;-81
2022/01/22 11:07:29;;;;;;;22.37;12.67;;;;;;;9.02;57.88;100312.63;6924474;28;20668;-82
2022/01/22 11:10:51;;;;;;;20.67;15.00;;;;;;;9.56;58.10;100369.63;6935797;28;20225;-82
2022/01/22 11:14:14;;;;;;;16.67;12.50;;;;;;;9.24;57.40;100366.72;6917623;28;20588;-81
2022/01/22 11:17:36;;;;;;;17.93;13.63;;;;;;;9.21;59.04;100372.44;6921778;28;20213;-81
2022/01/22 11:21:01;;;;;;;21.60;15.13;;;;;;;9.40;58.56;100354.19;6933632;28;20696;-83
2022/01/22 11:24:25;;;;;;;21.50;13.77;;;;;;;9.38;58.63;100376.91;6941397;28;20209;-82
2022/01/22 11:27:48;;;;;;;20.63;13.93;;;;;;;9.48;58.47;100381.19;6945455;28;20210;-81
2022/01/22 11:31:10;;;;;;;16.90;12.97;;;;;;;9.46;58.55;100382.34;6928119;28;20727;-80
2022/01/22 11:34:32;;;;;;;19.63;12.10;;;;;;;9.41;57.99;100379.28;6919542;28;20195;-81
2022/01/22 11:37:58;;;;;;;20.03;14.00;;;;;;;9.25;58.66;100353.13;6945153;28;20211;-83
2022/01/22 11:41:20;;;;;;;21.47;15.13;;;;;;;9.45;59.05;100375.28;6928974;28;20274;-81
2022/01/22 11:44:49;;;;;;;22.10;15.80;;;;;;;9.63;58.67;100378.75;6918737;28;20690;-80
2022/01/22 11:48:13;;;;;;;23.03;16.63;;;;;;;9.60;58.28;100373.66;6919732;28;20200;-80
2022/01/22 11:51:35;;;;;;;22.83;14.07;;;;;;;9.54;58.37;100368.91;6919136;28;20592;-80
2022/01/22 11:55:00;;;;;;;19.07;14.20;;;;;;;9.50;58.76;100371.09;6919080;28;20221;-80
2022/01/22 11:58:21;;;;;;;18.47;14.17;;;;;;;9.65;58.33;100314.78;6920133;28;20185;-83
2022/01/22 12:01:57;;;;;;;15.43;11.73;;;;;;;9.56;58.28;100361.56;6922185;28;20228;-82
2022/01/22 12:05:19;;;;;;;16.77;12.80;;;;;;;9.49;58.46;100338.94;6937617;28;20239;-82
2022/01/22 12:09:12;;;;;;;18.20;13.13;;;;;;;9.73;58.10;100360.59;6947417;28;20190;-81
2022/01/22 12:16:18;;;;;;;20.60;14.50;;;;;;;9.53;58.63;100346.56;6921293;28;20255;-83
2022/01/22 12:20:04;;;;;;;19.60;13.73;;;;;;;9.68;58.52;100341.41;6919736;28;20210;-83
2022/01/22 12:23:47;;;;;;;17.67;13.00;;;;;;;9.52;59.17;100344.00;6919652;28;20242;-84
2022/01/22 12:27:09;;;;;;;17.47;12.73;;;;;;;9.71;58.41;100357.22;6910343;28;20222;-84
2022/01/22 12:30:36;;;;;;;16.40;12.33;;;;;;;9.57;58.92;100360.53;6919523;28;20208;-84
2022/01/22 12:33:57;;;;;;;18.40;12.20;;;;;;;9.73;58.57;100360.59;6918904;28;20214;-82
2022/01/22 12:37:20;;;;;;;17.13;12.73;;;;;;;9.76;58.26;100360.28;6930943;28;20938;-84
2022/01/22 12:40:43;;;;;;;13.73;10.17;;;;;;;9.46;58.35;100358.94;6946843;28;20265;-87
2022/01/22 12:44:07;;;;;;;16.93;10.07;;;;;;;9.32;58.44;100347.94;6950389;28;20286;-84
2022/01/22 12:47:30;;;;;;;12.47;10.23;;;;;;;9.27;58.50;100353.81;6958296;28;20258;-84
2022/01/22 12:50:52;;;;;;;13.37;9.50;;;;;;;9.35;58.11;100366.47;6956165;28;20236;-85
2022/01/22 12:54:14;;;;;;;13.70;9.77;;;;;;;9.50;57.74;100367.56;6951336;28;20214;-83
2022/01/22 12:57:42;;;;;;;14.33;9.93;;;;;;;9.70;57.25;100342.06;6936215;28;20221;-84
2022/01/22 13:01:13;;;;;;;12.47;8.93;;;;;;;9.51;56.84;100362.00;6932973;28;20235;-81
2022/01/22 13:04:36;;;;;;;14.87;9.47;;;;;;;9.15;56.93;100313.88;6944728;28;20218;-82
2022/01/22 13:08:02;;;;;;;14.37;9.20;;;;;;;9.24;57.75;100337.13;6939180;28;20678;-81
2022/01/22 13:11:26;;;;;;;11.00;8.53;;;;;;;9.50;57.52;100337.97;6947385;28;20219;-82
2022/01/22 13:14:55;;;;;;;12.83;8.77;;;;;;;9.76;56.90;100347.66;6938660;28;20287;-82
2022/01/22 13:18:16;;;;;;;11.97;8.50;;;;;;;9.16;56.97;100310.19;6920742;28;20205;-82
2022/01/22 13:21:39;;;;;;;13.90;9.93;;;;;;;9.54;57.69;100342.00;6920767;28;20227;-83
2022/01/22 13:25:07;;;;;;;14.00;9.50;;;;;;;9.79;57.30;100333.88;6928223;28;20234;-81
2022/01/22 13:28:31;;;;;;;12.67;9.00;;;;;;;9.84;57.16;100338.75;6949632;28;20301;-82
2022/01/22 13:32:10;;;;;;;14.17;9.90;;;;;;;9.20;57.97;100338.44;6948801;28;20319;-82
2022/01/22 13:35:48;;;;;;;16.90;11.70;;;;;;;9.17;58.11;100301.09;6947944;28;20203;-81
2022/01/22 13:39:38;;;;;;;17.10;10.87;;;;;;;9.51;57.56;100336.94;6949070;28;20667;-81
2022/01/22 13:50:20;;;;;;;15.17;10.13;;;;;;;9.31;57.76;100357.00;6964871;28;20223;-79
2022/01/22 13:53:46;;;;;;;15.47;10.93;;;;;;;9.30;58.57;100361.56;6953571;28;20226;-83
2022/01/22 13:57:11;;;;;;;16.23;11.20;;;;;;;9.52;57.71;100355.63;6947850;28;20206;-79
2022/01/22 14:00:32;;;;;;;18.37;10.93;;;;;;;9.28;58.03;100360.03;6947607;28;20242;-82
2022/01/22 14:04:05;;;;;;;17.97;10.83;;;;;;;9.41;58.25;100358.59;6945547;28;20206;-79
2022/01/22 14:07:31;;;;;;;15.27;11.17;;;;;;;9.14;57.83;100358.78;6946222;28;20237;-80
2022/01/22 14:11:02;;;;;;;14.30;10.50;;;;;;;8.93;58.36;100355.59;6925385;28;20222;-79
2022/01/22 14:14:26;;;;;;;16.80;12.53;;;;;;;9.40;57.61;100356.06;6917365;28;20214;-80
2022/01/22 14:18:05;;;;;;;21.60;15.03;;;;;;;9.33;57.31;100355.03;6916218;28;20200;-81
2022/01/22 14:21:27;;;;;;;17.67;10.37;;;;;;;9.43;57.50;100350.34;6918612;28;20240;-79
2022/01/22 14:24:48;;;;;;;17.53;12.03;;;;;;;9.41;57.81;100342.47;6931936;28;20218;-79
2022/01/22 14:28:13;;;;;;;14.40;11.03;;;;;;;9.58;57.00;100335.28;6937674;28;20212;-84
2022/01/22 14:31:44;;;;;;;15.83;11.67;;;;;;;9.57;56.42;100314.75;6932512;28;20234;-79
2022/01/22 14:35:20;;;;;;;21.73;11.77;;;;;;;9.43;57.85;100339.59;6929515;28;20207;-80
2022/01/22 14:38:45;;;;;;;19.00;12.47;;;;;;;9.67;57.11;100345.06;6940777;28;20237;-79
2022/01/22 14:45:56;;;;;;;15.57;11.87;;;;;;;9.72;56.95;100350.81;6936776;28;20255;-82
2022/01/22 14:49:22;;;;;;;21.53;13.27;;;;;;;9.69;57.09;100367.31;6947374;28;20211;-83
2022/01/22 14:52:47;;;;;;;17.60;11.53;;;;;;;9.82;56.20;100360.50;6928410;28;20233;-82
2022/01/22 14:56:08;;;;;;;18.10;12.87;;;;;;;9.72;56.65;100365.16;6936882;28;20202;-81
2022/01/22 14:59:30;;;;;;;23.17;14.80;;;;;;;9.87;56.61;100365.38;6938087;28;20205;-81
2022/01/22 15:02:52;;;;;;;23.20;13.23;;;;;;;9.45;56.93;100342.97;6934848;28;20234;-81
2022/01/22 15:06:15;;;;;;;21.10;13.23;;;;;;;9.49;57.05;100369.41;6934316;28;20575;-80
2022/01/22 15:09:37;;;;;;;20.87;15.50;;;;;;;9.69;56.81;100383.47;6933937;28;20206;-81
2022/01/22 15:12:59;;;;;;;33.03;22.80;;;;;;;9.53;57.06;100369.94;6938202;28;20219;-80
2022/01/22 15:16:21;;;;;;;21.33;13.00;;;;;;;9.64;56.84;100381.25;6923094;28;20205;-81
2022/01/22 15:19:44;;;;;;;15.43;12.13;;;;;;;9.30;57.33;100360.72;6920854;28;20567;-80
2022/01/22 15:23:07;;;;;;;19.77;13.57;;;;;;;9.04;57.27;100311.47;6924586;28;20234;-82
2022/01/22 15:26:30;;;;;;;23.80;13.73;;;;;;;9.59;57.54;100386.31;6934604;28;20212;-80
2022/01/22 15:29:58;;;;;;;23.13;13.80;;;;;;;9.59;57.40;100397.06;6959776;28;20201;-82
2022/01/22 15:33:23;;;;;;;18.83;12.63;;;;;;;9.70;57.18;100377.09;6970160;28;20239;-81
2022/01/22 15:36:54;;;;;;;18.53;14.30;;;;;;;9.55;57.63;100397.53;6963704;28;20210;-81
2022/01/22 15:40:17;;;;;;;21.17;15.33;;;;;;;9.84;56.51;100393.50;6968332;28;20203;-83
2022/01/22 15:43:39;;;;;;;20.33;12.83;;;;;;;9.76;56.44;100395.28;6963614;28;20241;-83
2022/01/22 15:47:01;;;;;;;16.17;12.57;;;;;;;9.65;56.88;100409.03;6962105;28;20681;-81
2022/01/22 15:50:23;;;;;;;20.20;12.33;;;;;;;9.52;56.84;100408.63;6954252;28;20303;-82
2022/01/22 15:53:45;;;;;;;17.93;12.27;;;;;;;9.24;56.82;100372.13;6954161;28;20222;-82
2022/01/22 15:57:09;;;;;;;18.23;13.70;;;;;;;9.48;56.62;100394.66;6956182;28;20210;-87
2022/01/22 16:00:34;;;;;;;20.67;12.07;;;;;;;9.42;57.28;100410.59;6935372;28;20208;-83
2022/01/22 16:03:57;;;;;;;22.23;14.53;;;;;;;9.61;56.82;100411.22;6925015;28;20230;-82
2022/01/22 16:07:21;;;;;;;21.83;14.27;;;;;;;9.19;57.58;100393.28;6952902;28;20213;-82
2022/01/22 16:10:43;;;;;;;18.60;13.70;;;;;;;9.44;57.06;100411.25;6956937;28;20228;-83
2022/01/22 16:14:07;;;;;;;22.53;13.57;;;;;;;9.45;57.13;100426.44;6953605;28;20205;-83
2022/01/22 16:17:30;;;;;;;24.10;14.30;;;;;;;9.05;57.93;100421.59;6953405;28;20211;-83
2022/01/22 16:20:53;;;;;;;29.00;19.73;;;;;;;9.38;58.00;100426.22;6954597;28;20253;-82
2022/01/22 16:24:16;;;;;;;18.47;13.93;;;;;;;9.11;57.40;100380.59;6953399;28;20230;-82
2022/01/22 16:27:40;;;;;;;20.77;14.20;;;;;;;9.56;57.04;100428.88;6955982;28;20205;-82
2022/01/22 16:31:03;;;;;;;18.20;12.50;;;;;;;9.27;57.61;100431.84;6960643;28;20262;-83
2022/01/22 16:34:24;;;;;;;19.50;13.90;;;;;;;9.43;57.56;100434.66;6959107;28;20199;-82
2022/01/22 16:37:46;;;;;;;25.13;16.13;;;;;;;9.12;56.87;100362.63;6959843;28;20202;-83
2022/01/22 16:41:08;;;;;;;20.33;13.37;;;;;;;9.67;57.03;100439.34;6960204;28;20236;-83
2022/01/22 16:44:37;;;;;;;20.33;12.80;;;;;;;9.41;57.12;100449.28;6958548;28;20206;-83
2022/01/22 16:52:03;;;;;;;18.00;12.27;;;;;;;9.69;56.65;100454.34;6960592;28;20269;-83
2022/01/22 16:55:39;;;;;;;21.50;12.90;;;;;;;9.46;56.77;100452.34;6954601;28;20272;-82
2022/01/22 16:59:03;;;;;;;20.50;14.03;;;;;;;9.40;57.06;100461.06;6960690;28;20194;-84
2022/01/22 17:02:25;;;;;;;20.80;15.03;;;;;;;9.50;56.83;100456.44;6960828;28;20681;-82
2022/01/22 17:05:48;;;;;;;17.63;13.43;;;;;;;9.38;57.53;100457.66;6953347;28;20360;-83
2022/01/22 17:09:59;;;;;;;23.20;13.90;;;;;;;9.51;57.16;100458.09;6951903;28;20214;-83
2022/01/22 17:16:31;;;;;;;20.53;14.47;;;;;;;9.64;56.09;100456.66;6957691;28;20180;-83
2022/01/22 17:19:53;;;;;;;20.73;13.13;;;;;;;9.26;57.57;100448.16;6940296;28;20635;-82
2022/01/22 17:23:16;;;;;;;17.83;14.07;;;;;;;9.30;57.38;100453.09;6951296;28;20226;-79
2022/01/22 17:26:38;;;;;;;17.00;12.77;;;;;;;9.23;57.54;100449.34;6938169;28;20214;-80
2022/01/22 17:29:59;;;;;;;19.37;13.33;;;;;;;9.54;56.29;100468.53;6933882;28;20206;-82
2022/01/22 17:33:22;;;;;;;22.63;13.53;;;;;;;9.04;57.92;100460.25;6922574;28;20240;-80
2022/01/22 17:36:45;;;;;;;19.70;13.90;;;;;;;9.66;56.38;100460.06;6941107;28;20206;-81
2022/01/22 17:40:09;;;;;;;34.43;20.93;;;;;;;9.48;56.01;100448.50;6949466;28;20473;-84
2022/01/22 17:43:34;;;;;;;24.10;14.63;;;;;;;9.32;57.20;100477.13;6950407;28;20243;-83
2022/01/22 17:46:56;;;;;;;20.83;13.47;;;;;;;9.89;56.88;100487.28;6951784;28;20263;-80
2022/01/22 17:50:18;;;;;;;20.67;13.97;;;;;;;9.94;55.67;100480.44;6949555;28;20214;-80
2022/01/22 17:53:39;;;;;;;21.20;14.37;;;;;;;9.56;56.52;100490.81;6948818;28;20231;-79
2022/01/22 17:57:03;;;;;;;20.37;14.57;;;;;;;9.69;56.35;100491.22;6949929;28;20209;-80
2022/01/22 18:00:25;;;;;;;33.07;20.10;;;;;;;9.56;56.90;100513.16;6949215;28;20290;-81
2022/01/22 18:03:50;;;;;;;44.40;25.37;;;;;;;9.47;57.20;100499.81;6949948;28;20229;-80
2022/01/22 18:07:12;;;;;;;17.73;13.60;;;;;;;9.09;57.60;100492.09;6949426;28;20214;-80
2022/01/22 18:10:38;;;;;;;20.80;14.90;;;;;;;9.39;57.58;100510.53;6949834;28;20235;-83
2022/01/22 18:14:01;;;;;;;25.70;17.40;;;;;;;9.65;56.58;100506.84;6920907;28;20221;-80
2022/01/22 18:17:23;;;;;;;23.40;15.50;;;;;;;9.49;57.09;100504.03;6923083;28;20207;-80
2022/01/22 18:20:45;;;;;;;29.70;17.70;;;;;;;8.84;57.87;100457.88;6921574;28;20230;-80
2022/01/22 18:24:08;;;;;;;26.63;18.63;;;;;;;8.71;58.81;100508.53;6920032;28;20230;-80
2022/01/22 18:27:30;;;;;;;28.23;19.13;;;;;;;8.93;59.54;100502.72;6921224;28;20338;-80
2022/01/22 18:30:53;;;;;;;38.70;22.60;;;;;;;9.22;57.76;100504.13;6920829;28;20276;-80
2022/01/22 18:34:15;;;;;;;32.50;19.70;;;;;;;9.24;58.26;100506.69;6920185;28;20583;-80
2022/01/22 18:37:38;;;;;;;32.47;20.17;;;;;;;8.98;58.59;100484.25;6919240;28;20788;-79
2022/01/22 18:41:03;;;;;;;30.20;19.03;;;;;;;8.84;59.00;100475.88;6920693;28;20227;-80
2022/01/22 18:44:25;;;;;;;36.57;22.33;;;;;;;9.10;59.04;100515.31;6919355;28;20234;-80
2022/01/22 18:47:48;;;;;;;32.00;20.73;;;;;;;9.34;57.96;100519.03;6920151;28;20760;-81
2022/01/22 18:51:10;;;;;;;38.13;23.43;;;;;;;9.46;57.63;100514.28;6919061;28;20639;-79
2022/01/22 18:54:32;;;;;;;31.43;20.73;;;;;;;9.27;58.17;100511.78;6920094;28;20203;-79
2022/01/22 18:57:53;;;;;;;30.30;20.90;;;;;;;9.36;58.13;100489.28;6920369;28;20209;-79
2022/01/22 19:01:17;;;;;;;30.83;18.43;;;;;;;9.20;57.99;100507.97;6921247;28;20617;-81
2022/01/22 19:04:40;;;;;;;26.80;18.80;;;;;;;9.41;57.82;100516.59;6920777;28;20236;-82
2022/01/22 19:08:02;;;;;;;28.37;18.40;;;;;;;9.47;57.76;100526.72;6920794;28;20210;-80
2022/01/22 19:11:24;;;;;;;28.67;17.67;;;;;;;9.15;58.17;100510.31;6920788;28;20237;-81
2022/01/22 19:14:45;;;;;;;26.90;17.07;;;;;;;9.01;58.14;100478.56;6919353;28;20217;-82
2022/01/22 19:18:08;;;;;;;24.67;17.33;;;;;;;8.99;59.03;100526.31;6920996;28;20231;-82
2022/01/22 19:21:38;;;;;;;24.53;16.53;;;;;;;8.74;59.00;100524.38;6920107;28;20238;-81
2022/01/22 19:25:13;;;;;;;22.83;14.80;;;;;;;8.88;58.82;100523.84;6920372;28;20317;-81
2022/01/22 19:28:35;;;;;;;27.60;18.67;;;;;;;9.15;58.51;100531.84;6934307;28;20271;-81
2022/01/22 19:31:57;;;;;;;23.47;16.33;;;;;;;9.28;58.20;100537.69;6935295;28;20241;-81
2022/01/22 19:35:18;;;;;;;21.50;15.83;;;;;;;9.04;58.20;100537.47;6938746;28;20599;-78
2022/01/22 19:38:41;;;;;;;27.07;18.70;;;;;;;8.95;59.04;100526.78;6927037;28;20699;-78
2022/01/22 19:42:04;;;;;;;20.37;14.37;;;;;;;9.22;57.93;100517.59;6924932;28;20243;-79
2022/01/22 19:45:25;;;;;;;21.57;14.73;;;;;;;9.40;57.75;100531.88;6935225;28;20203;-79
2022/01/22 19:48:47;;;;;;;24.43;16.30;;;;;;;9.40;57.28;100512.22;6946102;28;20216;-80
2022/01/22 19:52:09;;;;;;;24.50;17.07;;;;;;;9.36;57.73;100527.84;6942328;28;20659;-79
2022/01/22 19:55:32;;;;;;;22.90;16.87;;;;;;;9.23;58.10;100516.63;6933184;28;20674;-79
2022/01/22 19:58:54;;;;;;;27.30;18.43;;;;;;;9.19;58.24;100519.75;6925319;28;20290;-77
2022/01/22 20:02:18;;;;;;;23.30;18.13;;;;;;;9.71;56.80;100521.53;6925915;28;20738;-77
2022/01/22 20:05:40;;;;;;;21.47;16.73;;;;;;;9.40;57.64;100518.41;6931245;28;20210;-77
2022/01/22 20:09:03;;;;;;;25.90;17.30;;;;;;;9.29;57.80;100518.69;6936738;28;20289;-78
2022/01/22 20:12:26;;;;;;;23.13;16.33;;;;;;;9.63;56.97;100516.09;6949688;28;20214;-78
2022/01/22 20:15:47;;;;;;;24.63;17.73;;;;;;;9.46;57.74;100522.34;6923190;28;20485;-78
2022/01/22 20:19:09;;;;;;;23.23;15.90;;;;;;;9.39;57.82;100502.44;6929781;28;20232;-78
2022/01/22 20:22:31;;;;;;;26.63;15.87;;;;;;;9.46;57.35;100531.25;6932780;28;20229;-78
2022/01/22 20:25:52;;;;;;;23.43;16.03;;;;;;;9.46;57.45;100514.28;6933103;28;20239;-78
2022/01/22 20:29:15;;;;;;;22.90;16.40;;;;;;;9.31;58.14;100530.13;6947700;28;20576;-78
2022/01/22 20:32:37;;;;;;;20.70;15.80;;;;;;;9.30;57.82;100519.53;6932832;28;20398;-79
2022/01/22 20:35:59;;;;;;;22.60;14.93;;;;;;;9.13;58.37;100519.53;6932836;28;20235;-77
2022/01/22 20:39:20;;;;;;;21.10;16.70;;;;;;;8.87;59.31;100529.34;6943946;28;20201;-79
2022/01/22 20:42:42;;;;;;;24.20;15.63;;;;;;;8.96;58.89;100531.16;6954359;28;20236;-79
2022/01/22 20:46:07;;;;;;;19.40;14.10;;;;;;;9.22;58.70;100531.06;6945446;28;20214;-79
2022/01/22 20:49:30;;;;;;;22.07;14.67;;;;;;;9.45;58.38;100526.06;6947100;28;20221;-78
2022/01/22 20:52:53;;;;;;;22.60;15.27;;;;;;;9.38;58.31;100500.72;6946307;28;20298;-78